createdAt,value
2022-10-16T00:04:20.551Z,10.63
2022-10-16T00:09:27.335Z,10.48
2022-10-16T00:14:35.018Z,10.02
2022-10-16T00:19:41.088Z,9.45
2022-10-16T00:25:06.589Z,7.50
2022-10-16T00:30:14.301Z,7.10
2022-10-16T00:35:20.266Z,8.75
2022-10-16T00:40:26.810Z,8.20
2022-10-16T00:45:34.777Z,7.90
2022-10-16T00:50:44.581Z,11.27
2022-10-16T00:55:50.530Z,8.80
2022-10-16T01:01:02.877Z,11.93
2022-10-16T01:06:26.214Z,9.55
2022-10-16T01:11:41.206Z,10.10
2022-10-16T01:16:57.895Z,8.98
2022-10-16T01:22:05.818Z,9.30
2022-10-16T01:27:20.575Z,8.50
2022-10-16T01:32:36.150Z,9.65
2022-10-16T01:37:49.193Z,9.02
2022-10-16T01:43:03.137Z,8.63
2022-10-16T01:48:14.601Z,9.88
2022-10-16T01:53:21.279Z,7.07
2022-10-16T01:58:38.198Z,14.63
2022-10-16T02:03:47.718Z,9.45
2022-10-16T02:08:55.149Z,12.05
2022-10-16T02:14:09.021Z,8.85
2022-10-16T02:19:17.797Z,10.90
2022-10-16T02:24:35.895Z,9.15
2022-10-16T02:29:55.067Z,9.15
2022-10-16T02:35:03.458Z,9.88
2022-10-16T02:40:13.039Z,11.20
2022-10-16T02:45:31.310Z,10.73
2022-10-16T02:50:39.687Z,8.45
2022-10-16T02:55:46.041Z,7.97
2022-10-16T03:00:54.526Z,7.90
2022-10-16T03:06:00.558Z,13.80
2022-10-16T03:11:07.191Z,13.50
2022-10-16T03:16:14.700Z,10.25
2022-10-16T03:21:20.615Z,13.77
2022-10-16T03:26:27.628Z,11.23
2022-10-16T03:31:34.987Z,9.10
2022-10-16T03:36:40.920Z,9.93
2022-10-16T03:41:47.860Z,10.40
2022-10-16T03:46:55.289Z,13.85
2022-10-16T03:52:01.230Z,10.32
2022-10-16T03:57:07.154Z,11.52
2022-10-16T04:02:14.509Z,9.32
2022-10-16T04:07:20.497Z,12.02
2022-10-16T04:12:26.444Z,9.02
2022-10-16T04:17:35.910Z,10.57
2022-10-16T04:22:42.521Z,12.60
2022-10-16T04:27:51.252Z,7.00
2022-10-16T04:33:02.787Z,8.00
2022-10-16T04:38:09.670Z,7.30
2022-10-16T04:43:17.074Z,8.93
2022-10-16T04:48:25.936Z,10.75
2022-10-16T04:53:32.213Z,10.10
2022-10-16T04:58:38.706Z,11.63
2022-10-16T05:03:47.947Z,15.15
2022-10-16T05:08:58.130Z,14.18
2022-10-16T05:14:07.347Z,11.07
2022-10-16T05:19:27.370Z,14.25
2022-10-16T05:24:36.807Z,10.23
2022-10-16T05:29:44.278Z,9.98
2022-10-16T05:34:53.121Z,13.20
2022-10-16T05:39:59.236Z,12.20
2022-10-16T05:45:06.861Z,11.43
2022-10-16T05:50:14.460Z,10.60
2022-10-16T05:55:20.627Z,12.00
2022-10-16T06:00:26.656Z,12.80
2022-10-16T06:05:34.548Z,11.95
2022-10-16T06:10:40.560Z,14.82
2022-10-16T06:15:47.674Z,16.98
2022-10-16T06:20:55.861Z,9.77
2022-10-16T06:26:09.600Z,10.85
2022-10-16T06:31:16.386Z,10.55
2022-10-16T06:36:23.938Z,12.55
2022-10-16T06:41:30.034Z,17.45
2022-10-16T06:46:37.714Z,15.80
2022-10-16T06:51:45.190Z,11.95
2022-10-16T06:56:51.333Z,10.52
2022-10-16T07:01:57.444Z,9.20
2022-10-16T07:07:07.021Z,10.23
2022-10-16T07:12:15.478Z,11.15
2022-10-16T07:17:21.613Z,9.52
2022-10-16T07:22:30.686Z,11.15
2022-10-16T07:32:43.990Z,9.95
2022-10-16T07:37:51.562Z,12.10
2022-10-16T07:42:57.819Z,13.98
2022-10-16T07:48:03.931Z,14.63
2022-10-16T07:53:12.243Z,11.30
2022-10-16T07:58:18.353Z,10.50
2022-10-16T08:03:24.903Z,16.02
2022-10-16T08:08:33.019Z,10.77
2022-10-16T08:13:39.762Z,11.10
2022-10-16T08:18:45.933Z,16.17
2022-10-16T08:23:57.924Z,9.70
2022-10-16T08:29:04.702Z,11.98
2022-10-16T08:34:10.725Z,10.15
2022-10-16T08:39:19.032Z,12.05
2022-10-16T08:45:04.088Z,10.70
2022-10-16T08:50:15.626Z,9.48
2022-10-16T08:55:41.214Z,9.98
2022-10-16T09:00:53.495Z,11.10
2022-10-16T09:06:23.510Z,10.70
2022-10-16T09:11:44.479Z,9.18
2022-10-16T09:16:59.433Z,9.70
2022-10-16T09:22:17.486Z,10.07
2022-10-16T09:27:25.860Z,10.13
2022-10-16T09:32:34.878Z,9.20
2022-10-16T09:37:41.466Z,10.88
2022-10-16T09:42:49.541Z,7.53
2022-10-16T09:47:57.850Z,8.43
2022-10-16T09:53:14.018Z,7.95
2022-10-16T09:58:26.592Z,11.95
2022-10-16T10:03:45.127Z,9.15
2022-10-16T10:09:07.598Z,8.57
2022-10-16T10:14:24.181Z,9.18
2022-10-16T10:19:32.971Z,11.55
2022-10-16T10:24:42.193Z,12.50
2022-10-16T10:30:02.180Z,12.80
2022-10-16T10:35:24.659Z,8.50
2022-10-16T10:40:42.839Z,11.32
2022-10-16T10:45:56.175Z,13.80
2022-10-16T10:51:11.704Z,11.82
2022-10-16T10:56:41.758Z,7.97
2022-10-16T11:02:01.259Z,10.70
2022-10-16T11:07:18.441Z,9.18
2022-10-16T11:12:29.087Z,9.35
2022-10-16T11:17:44.911Z,8.40
2022-10-16T11:22:57.946Z,8.40
2022-10-16T11:28:12.941Z,9.00
2022-10-16T11:33:33.984Z,8.82
2022-10-16T11:39:56.110Z,8.68
2022-10-16T11:45:16.892Z,10.50
2022-10-16T11:50:31.953Z,7.75
2022-10-16T11:55:44.774Z,7.45
2022-10-16T12:01:04.842Z,7.50
2022-10-16T12:06:34.378Z,6.53
2022-10-16T12:11:42.215Z,7.85
2022-10-16T12:16:58.462Z,8.47
2022-10-16T12:22:18.755Z,10.18
2022-10-16T12:27:31.017Z,7.10
2022-10-16T12:32:48.395Z,17.08
2022-10-16T12:38:27.956Z,10.13
2022-10-16T12:43:45.070Z,8.05
2022-10-16T12:49:08.400Z,10.18
2022-10-16T12:54:20.309Z,8.98
2022-10-16T12:59:41.103Z,8.00
2022-10-16T13:05:02.592Z,9.52
2022-10-16T13:10:26.215Z,9.55
2022-10-16T13:15:54.772Z,9.98
2022-10-16T13:21:19.938Z,8.25
2022-10-16T13:26:41.221Z,12.90
2022-10-16T13:31:48.099Z,8.70
2022-10-16T13:36:55.732Z,9.70
2022-10-16T13:42:09.411Z,9.30
2022-10-16T13:47:21.733Z,9.07
2022-10-16T13:52:28.413Z,10.02
2022-10-16T13:57:36.955Z,9.85
2022-10-16T14:02:44.516Z,10.60
2022-10-16T14:07:54.521Z,15.70
2022-10-16T14:13:06.260Z,8.40
2022-10-16T14:18:22.647Z,9.48
2022-10-16T14:23:34.835Z,10.82
2022-10-16T14:28:44.213Z,19.75
2022-10-16T14:33:52.100Z,19.38
2022-10-16T14:39:05.564Z,15.30
2022-10-16T14:44:16.852Z,11.05
2022-10-16T14:49:24.892Z,10.40
2022-10-16T14:54:31.333Z,12.07
2022-10-16T14:59:42.877Z,8.75
2022-10-16T15:04:49.321Z,7.00
2022-10-16T15:09:56.105Z,7.45
2022-10-16T15:15:04.123Z,8.93
2022-10-16T15:20:11.244Z,6.57
2022-10-16T15:25:43.846Z,7.53
2022-10-16T15:30:54.124Z,7.32
2022-10-16T15:36:01.381Z,9.25
2022-10-16T15:42:24.995Z,7.15
2022-10-16T15:47:33.703Z,8.52
2022-10-16T15:52:41.348Z,8.93
2022-10-16T15:57:49.562Z,12.38
2022-10-16T16:03:00.954Z,10.18
2022-10-16T16:08:08.501Z,10.18
2022-10-16T16:13:15.115Z,10.30
2022-10-16T16:18:24.467Z,8.35
2022-10-16T16:23:31.079Z,8.73
2022-10-16T16:28:37.839Z,10.70
2022-10-16T16:33:46.190Z,9.15
2022-10-16T16:38:53.148Z,8.07
2022-10-16T16:44:06.270Z,14.23
2022-10-16T16:49:16.598Z,14.90
2022-10-16T16:54:23.789Z,10.90
2022-10-16T16:59:31.477Z,10.95
2022-10-16T17:04:39.304Z,16.65
2022-10-16T17:09:45.970Z,17.75
2022-10-16T17:14:54.273Z,28.98
2022-10-16T17:20:02.800Z,8.53
2022-10-16T17:25:13.666Z,10.57
2022-10-16T17:30:20.852Z,23.17
2022-10-16T17:35:31.873Z,22.25
2022-10-16T17:40:44.433Z,28.63
2022-10-16T17:45:51.731Z,24.95
2022-10-16T17:51:02.298Z,26.08
2022-10-16T17:56:12.135Z,24.95
2022-10-16T18:01:23.345Z,21.88
2022-10-16T18:06:33.219Z,18.95
2022-10-16T18:11:40.941Z,15.40
2022-10-16T18:16:47.701Z,16.73
2022-10-16T18:21:57.301Z,10.85
2022-10-16T18:27:04.350Z,8.93
2022-10-16T18:32:11.433Z,11.52
2022-10-16T18:37:20.684Z,10.35
2022-10-16T18:42:28.567Z,6.70
2022-10-16T18:47:35.954Z,7.38
2022-10-16T18:52:50.681Z,7.38
2022-10-16T18:57:58.072Z,8.20
2022-10-16T19:03:05.195Z,8.73
2022-10-16T19:08:14.201Z,7.70
2022-10-16T19:13:23.772Z,8.00
2022-10-16T19:18:32.380Z,10.88
2022-10-16T19:23:45.664Z,16.90
2022-10-16T19:28:54.229Z,13.60
2022-10-16T19:34:04.548Z,14.57
2022-10-16T19:39:16.590Z,17.08
2022-10-16T19:44:24.106Z,15.60
2022-10-16T19:49:30.762Z,9.70
2022-10-16T19:54:39.408Z,14.68
2022-10-16T20:04:52.269Z,12.85
2022-10-16T20:10:00.373Z,7.97
2022-10-16T20:15:08.273Z,9.33
2022-10-16T20:20:14.935Z,9.50
2022-10-16T20:25:22.418Z,8.13
2022-10-16T20:30:28.635Z,10.95
2022-10-16T20:35:38.438Z,7.80
2022-10-16T20:40:49.377Z,7.22
2022-10-16T20:46:02.577Z,8.70
2022-10-16T20:51:14.911Z,5.80
2022-10-16T20:56:22.796Z,5.38
2022-10-16T21:01:31.374Z,5.80
2022-10-16T21:06:40.416Z,12.40
2022-10-16T21:11:48.328Z,7.93
2022-10-16T21:16:55.312Z,12.00
2022-10-16T21:22:01.433Z,9.07
2022-10-16T21:27:08.928Z,7.05
2022-10-16T21:32:15.353Z,8.35
2022-10-16T21:37:21.707Z,13.80
2022-10-16T21:42:30.129Z,10.70
2022-10-16T21:47:36.505Z,11.80
2022-10-16T21:52:42.622Z,11.30
2022-10-16T21:57:50.293Z,9.38
2022-10-16T22:02:58.882Z,11.18
2022-10-16T22:08:05.216Z,16.38
2022-10-16T22:13:12.822Z,20.05
2022-10-16T22:18:19.615Z,14.05
2022-10-16T22:23:26.033Z,11.15
2022-10-16T22:28:33.641Z,12.07
2022-10-16T22:33:40.328Z,17.02
2022-10-16T22:38:46.716Z,9.25
2022-10-16T22:43:54.603Z,11.05
2022-10-16T22:49:01.107Z,11.23
2022-10-16T22:54:07.259Z,10.77
2022-10-16T22:59:15.483Z,10.35
2022-10-16T23:04:21.584Z,8.97
2022-10-16T23:09:28.344Z,5.60
2022-10-16T23:14:35.948Z,6.88
2022-10-16T23:19:42.042Z,8.85
2022-10-16T23:24:48.379Z,9.25
2022-10-16T23:29:55.995Z,10.27
2022-10-16T23:35:02.490Z,6.20
2022-10-16T23:40:09.845Z,6.68
2022-10-16T23:45:19.120Z,6.30
2022-10-16T23:50:25.461Z,6.72
